createdAt,value
2022-10-15T00:02:22.571Z,25.23
2022-10-15T00:04:59.182Z,25.05
2022-10-15T00:07:30.928Z,23.67
2022-10-15T00:09:59.378Z,24.23
2022-10-15T00:12:27.810Z,23.00
2022-10-15T00:14:56.254Z,24.15
2022-10-15T00:17:24.850Z,23.25
2022-10-15T00:19:53.428Z,23.45
2022-10-15T00:22:22.049Z,23.58
2022-10-15T00:24:52.293Z,24.77
2022-10-15T00:27:20.989Z,25.98
2022-10-15T00:29:50.696Z,22.73
2022-10-15T00:32:22.862Z,22.10
2022-10-15T00:34:53.218Z,24.23
2022-10-15T00:37:25.597Z,23.58
2022-10-15T00:39:58.988Z,22.60
2022-10-15T00:42:30.596Z,23.95
2022-10-15T00:45:03.101Z,22.85
2022-10-15T00:47:39.686Z,22.63
2022-10-15T00:50:15.849Z,23.90
2022-10-15T00:53:12.311Z,24.10
2022-10-15T00:55:44.303Z,24.33
2022-10-15T00:58:20.010Z,25.58
2022-10-15T01:00:48.351Z,25.63
2022-10-15T01:03:16.604Z,22.98
2022-10-15T01:05:45.188Z,24.15
2022-10-15T01:08:13.430Z,23.52
2022-10-15T01:10:50.345Z,23.08
2022-10-15T01:13:33.056Z,24.52
2022-10-15T01:16:07.032Z,22.75
2022-10-15T01:18:40.682Z,23.80
2022-10-15T01:21:18.026Z,23.23
2022-10-15T01:24:19.823Z,25.85
2022-10-15T01:27:17.903Z,25.58
2022-10-15T01:30:08.327Z,23.52
2022-10-15T01:32:43.534Z,25.67
2022-10-15T01:35:20.063Z,25.52
2022-10-15T01:37:55.103Z,28.38
2022-10-15T01:40:30.752Z,27.20
2022-10-15T01:43:00.471Z,26.05
2022-10-15T01:45:34.717Z,23.98
2022-10-15T01:48:09.614Z,24.77
2022-10-15T01:50:41.621Z,27.05
2022-10-15T01:53:11.370Z,25.55
2022-10-15T01:55:44.107Z,27.98
2022-10-15T01:58:14.271Z,28.33
2022-10-15T02:00:47.713Z,27.42
2022-10-15T02:03:34.295Z,26.08
2022-10-15T02:06:15.525Z,28.20
2022-10-15T02:08:59.190Z,26.20
2022-10-15T02:11:33.561Z,25.98
2022-10-15T02:14:13.061Z,26.52
2022-10-15T02:16:45.597Z,24.85
2022-10-15T02:19:25.992Z,26.02
2022-10-15T02:22:00.108Z,27.25
2022-10-15T02:24:35.783Z,26.80
2022-10-15T02:27:08.857Z,25.42
2022-10-15T02:29:39.424Z,25.88
2022-10-15T02:32:08.661Z,27.35
2022-10-15T02:34:38.557Z,25.38
2022-10-15T02:37:08.599Z,26.88
2022-10-15T02:39:36.892Z,26.30
2022-10-15T02:42:06.409Z,27.25
2022-10-15T02:44:34.496Z,26.50
2022-10-15T02:47:03.238Z,26.63
2022-10-15T02:49:31.383Z,25.63
2022-10-15T02:52:01.420Z,25.70
2022-10-15T02:54:29.607Z,24.38
2022-10-15T02:56:57.902Z,25.65
2022-10-15T02:59:26.056Z,25.73
2022-10-15T03:01:54.232Z,25.15
2022-10-15T03:04:25.186Z,25.08
2022-10-15T03:06:53.829Z,27.40
2022-10-15T03:09:24.195Z,25.00
2022-10-15T03:11:58.095Z,26.23
2022-10-15T03:17:02.618Z,27.95
2022-10-15T03:19:33.223Z,25.58
2022-10-15T03:22:02.113Z,27.02
2022-10-15T03:24:38.692Z,26.35
2022-10-15T03:27:11.328Z,23.25
2022-10-15T03:29:41.449Z,26.77
2022-10-15T03:32:14.450Z,27.77
2022-10-15T03:34:47.283Z,28.80
2022-10-15T03:37:15.876Z,27.65
2022-10-15T03:39:46.198Z,27.45
2022-10-15T03:42:19.810Z,26.85
2022-10-15T03:44:51.331Z,25.88
2022-10-15T03:47:22.200Z,26.50
2022-10-15T03:49:50.532Z,27.42
2022-10-15T03:52:19.338Z,26.10
2022-10-15T03:54:49.259Z,29.23
2022-10-15T03:57:17.683Z,28.70
2022-10-15T03:59:46.192Z,25.35
2022-10-15T04:02:14.477Z,26.60
2022-10-15T04:04:42.822Z,27.85
2022-10-15T04:07:11.135Z,25.75
2022-10-15T04:09:39.489Z,27.23
2022-10-15T04:12:09.260Z,26.95
2022-10-15T04:14:37.787Z,26.80
2022-10-15T04:17:06.053Z,26.48
2022-10-15T04:19:34.347Z,27.45
2022-10-15T04:22:02.565Z,26.77
2022-10-15T04:24:30.823Z,26.90
2022-10-15T04:26:59.111Z,27.70
2022-10-15T04:29:29.112Z,28.35
2022-10-15T04:31:57.373Z,28.73
2022-10-15T04:34:25.768Z,26.08
2022-10-15T04:36:54.056Z,28.48
2022-10-15T04:39:22.402Z,28.88
2022-10-15T04:41:50.611Z,28.65
2022-10-15T04:44:18.873Z,28.85
2022-10-15T04:46:48.495Z,26.98
2022-10-15T04:49:16.802Z,26.13
2022-10-15T04:51:44.983Z,26.98
2022-10-15T04:54:16.647Z,27.98
2022-10-15T04:56:50.096Z,29.55
2022-10-15T04:59:27.228Z,27.73
2022-10-15T05:01:57.279Z,27.42
2022-10-15T05:04:25.594Z,29.02
2022-10-15T05:06:53.901Z,28.77
2022-10-15T05:09:22.123Z,29.92
2022-10-15T05:11:50.320Z,29.52
2022-10-15T05:14:18.511Z,29.10
2022-10-15T05:16:47.190Z,29.77
2022-10-15T05:19:18.044Z,31.25
2022-10-15T05:21:46.530Z,30.27
2022-10-15T05:24:15.051Z,27.35
2022-10-15T05:26:43.223Z,30.77
2022-10-15T05:29:11.462Z,28.52
2022-10-15T05:31:39.692Z,30.98
2022-10-15T05:34:09.320Z,30.90
2022-10-15T05:36:39.034Z,30.27
2022-10-15T05:39:10.466Z,30.38
2022-10-15T05:41:38.779Z,29.17
2022-10-15T05:44:07.368Z,30.95
2022-10-15T05:46:35.868Z,31.33
2022-10-15T05:49:04.027Z,30.25
2022-10-15T05:51:32.481Z,31.17
2022-10-15T05:54:02.156Z,32.00
2022-10-15T05:56:30.389Z,32.45
2022-10-15T05:58:59.512Z,30.02
2022-10-15T06:01:27.828Z,30.98
2022-10-15T06:03:56.040Z,30.73
2022-10-15T06:06:26.372Z,30.90
2022-10-15T06:08:55.147Z,30.15
2022-10-15T06:11:24.986Z,30.30
2022-10-15T06:13:53.227Z,34.08
2022-10-15T06:16:23.872Z,32.08
2022-10-15T06:18:53.793Z,31.55
2022-10-15T06:21:22.066Z,32.47
2022-10-15T06:23:50.360Z,31.90
2022-10-15T06:26:18.965Z,31.88
2022-10-15T06:28:48.678Z,31.98
2022-10-15T06:31:16.925Z,31.00
2022-10-15T06:33:45.172Z,32.38
2022-10-15T06:36:14.549Z,30.70
2022-10-15T06:38:44.360Z,31.48
2022-10-15T06:41:12.590Z,34.13
2022-10-15T06:43:41.284Z,30.30
2022-10-15T06:46:11.323Z,33.38
2022-10-15T06:48:39.515Z,32.28
2022-10-15T06:51:07.812Z,31.40
2022-10-15T06:53:36.129Z,33.58
2022-10-15T06:56:05.322Z,33.17
2022-10-15T06:58:33.580Z,31.13
2022-10-15T07:01:02.580Z,32.80
2022-10-15T07:03:32.524Z,31.00
2022-10-15T07:06:04.611Z,33.35
2022-10-15T07:08:33.501Z,31.73
2022-10-15T07:11:03.221Z,33.35
2022-10-15T07:13:31.879Z,33.42
2022-10-15T07:16:00.154Z,31.30
2022-10-15T07:18:28.455Z,31.02
2022-10-15T07:20:59.959Z,33.63
2022-10-15T07:23:28.502Z,29.90
2022-10-15T07:25:58.348Z,31.30
2022-10-15T07:28:26.754Z,33.75
2022-10-15T07:30:54.960Z,32.05
2022-10-15T07:33:23.280Z,33.63
2022-10-15T07:35:51.391Z,31.92
2022-10-15T07:38:21.093Z,34.03
2022-10-15T07:40:49.453Z,33.55
2022-10-15T07:43:17.578Z,32.78
2022-10-15T07:45:49.842Z,34.92
2022-10-15T07:48:18.104Z,32.67
2022-10-15T07:50:46.262Z,32.80
2022-10-15T07:53:17.056Z,31.83
2022-10-15T07:55:50.495Z,31.90
2022-10-15T07:58:19.257Z,33.63
2022-10-15T08:00:47.385Z,30.52
2022-10-15T08:03:15.553Z,34.53
2022-10-15T08:05:43.700Z,32.03
2022-10-15T08:08:11.808Z,31.13
2022-10-15T08:10:39.870Z,33.38
2022-10-15T08:13:09.667Z,34.08
2022-10-15T08:15:40.939Z,33.50
2022-10-15T08:18:10.092Z,30.10
2022-10-15T08:20:38.609Z,32.00
2022-10-15T08:23:07.181Z,32.55
2022-10-15T08:25:35.337Z,32.90
2022-10-15T08:28:03.595Z,33.35
2022-10-15T08:30:34.674Z,33.05
2022-10-15T08:33:02.971Z,34.33
2022-10-15T08:35:35.412Z,32.88
2022-10-15T08:38:04.181Z,33.25
2022-10-15T08:40:32.498Z,32.88
2022-10-15T08:43:00.793Z,35.25
2022-10-15T08:45:35.201Z,33.65
2022-10-15T08:48:06.967Z,33.40
2022-10-15T08:50:44.636Z,30.17
2022-10-15T08:53:15.334Z,34.25
2022-10-15T08:55:46.919Z,31.95
2022-10-15T08:58:20.163Z,33.65
2022-10-15T09:00:53.504Z,35.20
2022-10-15T09:03:36.297Z,34.80
2022-10-15T09:06:13.951Z,34.63
2022-10-15T09:08:52.088Z,33.53
2022-10-15T09:11:29.644Z,34.85
2022-10-15T09:13:59.066Z,35.28
2022-10-15T09:16:31.637Z,34.53
2022-10-15T09:19:01.813Z,33.42
2022-10-15T09:21:31.594Z,36.63
2022-10-15T09:24:02.578Z,32.13
2022-10-15T09:26:37.549Z,31.90
2022-10-15T09:29:16.933Z,32.60
2022-10-15T09:31:51.936Z,32.30
2022-10-15T09:34:28.629Z,31.05
2022-10-15T09:37:01.102Z,34.65
2022-10-15T09:39:40.165Z,30.13
2022-10-15T09:42:19.820Z,30.88
2022-10-15T09:44:49.246Z,31.08
2022-10-15T09:47:25.181Z,32.72
2022-10-15T09:49:53.268Z,32.67
2022-10-15T09:52:31.195Z,32.03
2022-10-15T09:55:09.277Z,31.45
2022-10-15T09:57:39.752Z,27.55
2022-10-15T10:00:10.599Z,27.70
2022-10-15T10:02:40.774Z,31.17
2022-10-15T10:05:29.240Z,26.50
2022-10-15T10:08:10.496Z,26.40
2022-10-15T10:10:41.800Z,28.45
2022-10-15T10:13:25.523Z,27.15
2022-10-15T10:15:58.429Z,27.65
2022-10-15T10:18:32.376Z,26.95
2022-10-15T10:21:02.303Z,27.38
2022-10-15T10:23:34.934Z,25.67
2022-10-15T10:26:05.235Z,26.60
2022-10-15T10:28:39.315Z,25.85
2022-10-15T10:31:12.229Z,26.67
2022-10-15T10:33:48.123Z,26.58
2022-10-15T10:36:26.914Z,26.15
2022-10-15T10:39:03.130Z,25.67
2022-10-15T10:41:49.819Z,24.10
2022-10-15T10:44:23.932Z,23.73
2022-10-15T10:47:05.622Z,25.85
2022-10-15T10:49:37.736Z,25.15
2022-10-15T10:52:06.724Z,24.98
2022-10-15T10:54:35.488Z,23.77
2022-10-15T10:57:04.879Z,25.30
2022-10-15T10:59:37.048Z,24.40
2022-10-15T11:02:10.958Z,24.90
2022-10-15T11:04:41.291Z,23.83
2022-10-15T11:07:18.289Z,23.88
2022-10-15T11:09:56.090Z,23.60
2022-10-15T11:12:57.813Z,21.10
2022-10-15T11:15:35.134Z,20.55
2022-10-15T11:18:18.051Z,20.02
2022-10-15T11:21:00.564Z,19.73
2022-10-15T11:23:47.048Z,20.45
2022-10-15T11:26:37.052Z,21.77
2022-10-15T11:29:14.239Z,21.80
2022-10-15T11:32:01.804Z,22.15
2022-10-15T11:34:42.776Z,24.80
2022-10-15T11:37:24.330Z,26.38
2022-10-15T11:40:07.442Z,25.95
2022-10-15T11:42:39.953Z,24.58
2022-10-15T11:45:28.589Z,27.35
2022-10-15T11:48:03.592Z,26.23
2022-10-15T11:50:35.985Z,28.45
2022-10-15T11:53:30.389Z,30.35
2022-10-15T11:56:04.212Z,28.13
2022-10-15T11:58:36.483Z,27.65
2022-10-15T12:01:10.485Z,28.30
2022-10-15T12:03:45.217Z,28.52
2022-10-15T12:06:19.825Z,29.60
2022-10-15T12:08:51.639Z,29.02
2022-10-15T12:11:29.681Z,28.70
2022-10-15T12:14:06.691Z,29.58
2022-10-15T12:16:40.281Z,28.42
2022-10-15T12:19:17.247Z,28.13
2022-10-15T12:22:06.711Z,29.73
2022-10-15T12:24:54.245Z,30.20
2022-10-15T12:27:37.634Z,29.92
2022-10-15T12:30:34.436Z,30.45
2022-10-15T12:33:03.452Z,29.92
2022-10-15T12:35:36.719Z,31.52
2022-10-15T12:38:22.869Z,32.45
2022-10-15T12:41:00.530Z,34.78
2022-10-15T12:43:29.340Z,32.63
2022-10-15T12:46:00.461Z,36.75
2022-10-15T12:48:40.705Z,36.55
2022-10-15T12:51:30.857Z,36.92
2022-10-15T12:54:00.867Z,37.85
2022-10-15T12:56:40.739Z,38.85
2022-10-15T12:59:31.069Z,38.60
2022-10-15T13:01:59.451Z,37.42
2022-10-15T13:04:39.452Z,37.80
2022-10-15T13:07:07.687Z,37.55
2022-10-15T13:09:36.312Z,36.88
2022-10-15T13:12:06.301Z,38.70
2022-10-15T13:14:39.567Z,40.17
2022-10-15T13:17:16.685Z,38.10
2022-10-15T13:19:50.337Z,37.30
2022-10-15T13:22:24.007Z,39.65
2022-10-15T13:24:52.502Z,35.92
2022-10-15T13:27:27.015Z,38.17
2022-10-15T13:29:57.739Z,39.60
2022-10-15T13:32:27.502Z,39.13
2022-10-15T13:34:57.656Z,38.55
2022-10-15T13:37:32.275Z,39.55
2022-10-15T13:40:04.689Z,38.83
2022-10-15T13:42:37.482Z,42.78
2022-10-15T13:45:18.498Z,40.42
2022-10-15T13:47:50.366Z,43.03
2022-10-15T13:50:25.068Z,40.47
2022-10-15T13:52:58.423Z,41.97
2022-10-15T13:55:29.651Z,44.35
2022-10-15T13:58:02.461Z,46.22
2022-10-15T14:00:33.601Z,44.30
2022-10-15T14:03:09.597Z,42.63
2022-10-15T14:05:39.168Z,42.97
2022-10-15T14:08:07.669Z,43.85
2022-10-15T14:10:36.977Z,43.28
2022-10-15T14:13:06.834Z,43.20
2022-10-15T14:15:48.891Z,47.15
2022-10-15T14:18:29.636Z,44.55
2022-10-15T14:20:58.069Z,43.03
2022-10-15T14:23:27.806Z,44.38
2022-10-15T14:25:59.360Z,44.92
2022-10-15T14:28:31.382Z,40.80
2022-10-15T14:31:00.530Z,45.72
2022-10-15T14:33:41.754Z,44.03
2022-10-15T14:36:14.361Z,44.03
2022-10-15T14:38:43.344Z,44.03
2022-10-15T14:41:28.192Z,44.22
2022-10-15T14:44:16.619Z,45.40
2022-10-15T14:46:47.455Z,43.92
2022-10-15T14:49:20.318Z,42.88
2022-10-15T14:51:57.872Z,43.30
2022-10-15T14:54:31.777Z,42.42
2022-10-15T14:57:00.362Z,44.45
2022-10-15T14:59:34.337Z,43.15
2022-10-15T15:02:05.312Z,43.63
2022-10-15T15:04:41.680Z,44.08
2022-10-15T15:07:27.681Z,43.85
2022-10-15T15:09:55.869Z,44.63
2022-10-15T15:12:27.925Z,44.03
2022-10-15T15:14:58.057Z,44.53
2022-10-15T15:17:27.640Z,43.70
2022-10-15T15:19:58.157Z,42.80
2022-10-15T15:22:30.584Z,45.35
2022-10-15T15:25:08.432Z,42.03
2022-10-15T15:27:37.614Z,43.00
2022-10-15T15:30:09.515Z,43.00
2022-10-15T15:32:37.692Z,42.22
2022-10-15T15:35:20.885Z,44.95
2022-10-15T15:37:49.202Z,44.92
2022-10-15T15:40:17.717Z,44.30
2022-10-15T15:42:47.041Z,44.70
2022-10-15T15:45:25.445Z,44.97
2022-10-15T15:47:58.823Z,41.78
2022-10-15T15:50:27.083Z,46.58
2022-10-15T15:52:55.276Z,46.42
2022-10-15T15:55:23.998Z,46.28
2022-10-15T15:57:52.558Z,43.72
2022-10-15T16:00:22.464Z,47.45
2022-10-15T16:02:54.035Z,46.45
2022-10-15T16:05:25.670Z,48.05
2022-10-15T16:07:53.993Z,48.58
2022-10-15T16:10:22.433Z,50.53
2022-10-15T16:12:57.089Z,49.08
2022-10-15T16:15:27.141Z,47.53
2022-10-15T16:18:32.621Z,48.95
2022-10-15T16:21:07.389Z,45.35
2022-10-15T16:26:24.074Z,47.10
2022-10-15T16:28:54.927Z,48.10
2022-10-15T16:31:29.377Z,46.95
2022-10-15T16:34:03.655Z,47.72
2022-10-15T16:36:37.687Z,46.20
2022-10-15T16:39:06.466Z,49.55
2022-10-15T16:41:34.704Z,46.45
2022-10-15T16:44:02.926Z,50.20
2022-10-15T16:46:32.600Z,46.05
2022-10-15T16:49:03.342Z,47.22
2022-10-15T16:51:36.457Z,50.25
2022-10-15T16:54:06.865Z,48.67
2022-10-15T16:56:38.245Z,46.95
2022-10-15T16:59:06.456Z,47.10
2022-10-15T17:01:37.097Z,45.30
2022-10-15T17:04:15.941Z,44.50
2022-10-15T17:06:44.092Z,48.85
2022-10-15T17:09:12.267Z,47.53
2022-10-15T17:11:42.438Z,45.40
2022-10-15T17:14:13.070Z,45.65
2022-10-15T17:16:44.704Z,48.13
2022-10-15T17:19:14.806Z,46.50
2022-10-15T17:21:46.878Z,47.58
2022-10-15T17:24:26.059Z,46.67
2022-10-15T17:26:59.291Z,45.42
2022-10-15T17:29:33.562Z,47.50
2022-10-15T17:32:03.661Z,47.45
2022-10-15T17:34:31.837Z,46.85
2022-10-15T17:37:00.029Z,49.85
2022-10-15T17:39:28.389Z,49.05
2022-10-15T17:41:56.623Z,50.00
2022-10-15T17:44:24.902Z,47.72
2022-10-15T17:46:54.140Z,48.13
2022-10-15T17:49:23.977Z,49.85
2022-10-15T17:51:56.935Z,50.50
2022-10-15T17:54:30.949Z,45.58
2022-10-15T17:56:59.215Z,47.95
2022-10-15T17:59:27.534Z,50.28
2022-10-15T18:01:59.517Z,48.40
2022-10-15T18:04:30.697Z,46.78
2022-10-15T18:06:58.978Z,46.47
2022-10-15T18:09:28.496Z,47.85
2022-10-15T18:11:57.161Z,47.63
2022-10-15T18:14:35.516Z,46.80
2022-10-15T18:17:04.267Z,48.25
2022-10-15T18:19:34.180Z,47.33
2022-10-15T18:22:02.530Z,46.67
2022-10-15T18:24:30.752Z,47.78
2022-10-15T18:26:58.852Z,48.13
2022-10-15T18:29:27.209Z,47.95
2022-10-15T18:31:58.120Z,50.35
2022-10-15T18:34:26.756Z,46.58
2022-10-15T18:36:56.387Z,44.70
2022-10-15T18:39:24.848Z,47.38
2022-10-15T18:41:53.096Z,47.63
2022-10-15T18:44:23.445Z,47.92
2022-10-15T18:46:52.692Z,45.70
2022-10-15T18:49:22.517Z,46.15
2022-10-15T18:51:55.492Z,45.25
2022-10-15T18:54:25.447Z,45.28
2022-10-15T18:57:00.031Z,45.35
2022-10-15T18:59:28.320Z,45.40
2022-10-15T19:01:59.353Z,47.97
2022-10-15T19:04:28.728Z,47.40
2022-10-15T19:07:02.152Z,45.17
2022-10-15T19:09:38.521Z,44.90
2022-10-15T19:12:09.609Z,42.75
2022-10-15T19:14:37.881Z,44.83
2022-10-15T19:17:06.205Z,45.78
2022-10-15T19:19:34.570Z,45.13
2022-10-15T19:22:02.891Z,44.08
2022-10-15T19:24:32.752Z,45.03
2022-10-15T19:27:01.118Z,42.90
2022-10-15T19:29:31.601Z,44.88
2022-10-15T19:32:03.727Z,42.70
2022-10-15T19:34:32.158Z,43.35
2022-10-15T19:37:04.397Z,44.25
2022-10-15T19:39:47.759Z,44.65
2022-10-15T19:42:15.985Z,44.22
2022-10-15T19:44:44.367Z,43.95
2022-10-15T19:47:16.609Z,43.00
2022-10-15T19:49:50.599Z,40.33
2022-10-15T19:52:20.793Z,43.85
2022-10-15T19:54:50.756Z,42.50
2022-10-15T19:57:19.082Z,41.38
2022-10-15T19:59:47.382Z,42.35
2022-10-15T20:02:15.652Z,43.38
2022-10-15T20:04:43.945Z,40.75
2022-10-15T20:07:12.185Z,40.63
2022-10-15T20:09:40.328Z,42.60
2022-10-15T20:12:10.710Z,41.60
2022-10-15T20:14:39.008Z,43.15
2022-10-15T20:17:07.172Z,41.03
2022-10-15T20:19:35.446Z,40.67
2022-10-15T20:22:03.808Z,43.72
2022-10-15T20:24:54.657Z,40.25
2022-10-15T20:27:22.622Z,41.70
2022-10-15T20:29:50.970Z,45.72
2022-10-15T20:32:30.270Z,42.80
2022-10-15T20:35:02.313Z,41.47
2022-10-15T20:37:32.649Z,41.97
2022-10-15T20:40:01.110Z,40.97
2022-10-15T20:42:30.818Z,40.47
2022-10-15T20:44:59.086Z,41.63
2022-10-15T20:47:27.566Z,42.63
2022-10-15T20:49:56.419Z,41.05
2022-10-15T20:52:25.094Z,41.70
2022-10-15T20:54:55.727Z,40.33
2022-10-15T20:57:24.024Z,43.42
2022-10-15T20:59:53.824Z,43.15
2022-10-15T21:02:22.160Z,42.15
2022-10-15T21:04:52.743Z,42.45
2022-10-15T21:09:49.512Z,40.35
2022-10-15T21:12:18.682Z,42.95
2022-10-15T21:14:47.412Z,42.15
2022-10-15T21:17:17.322Z,43.85
2022-10-15T21:19:51.829Z,40.50
2022-10-15T21:22:21.274Z,39.95
2022-10-15T21:24:49.498Z,39.70
2022-10-15T21:27:17.764Z,40.13
2022-10-15T21:29:46.901Z,41.20
2022-10-15T21:32:16.996Z,42.90
2022-10-15T21:34:45.331Z,42.97
2022-10-15T21:37:13.787Z,41.38
2022-10-15T21:39:46.126Z,41.50
2022-10-15T21:42:18.024Z,41.47
2022-10-15T21:44:49.525Z,39.67
2022-10-15T21:47:19.378Z,40.42
2022-10-15T21:49:47.885Z,39.45
2022-10-15T21:52:16.073Z,40.58
2022-10-15T21:54:49.680Z,42.28
2022-10-15T21:57:20.133Z,41.35
2022-10-15T21:59:48.666Z,42.05
2022-10-15T22:04:46.698Z,42.97
2022-10-15T22:07:14.935Z,39.90
2022-10-15T22:09:43.268Z,39.78
2022-10-15T22:12:11.509Z,39.92
2022-10-15T22:14:39.765Z,41.92
2022-10-15T22:17:07.907Z,45.63
2022-10-15T22:19:37.545Z,44.53
2022-10-15T22:22:05.740Z,42.95
2022-10-15T22:24:34.080Z,42.15
2022-10-15T22:27:02.389Z,44.42
2022-10-15T22:29:33.051Z,45.80
2022-10-15T22:32:06.260Z,43.70
2022-10-15T22:34:35.252Z,45.15
2022-10-15T22:37:28.795Z,44.67
2022-10-15T22:39:56.992Z,43.95
2022-10-15T22:42:25.801Z,45.00
2022-10-15T22:44:54.279Z,45.63
2022-10-15T22:47:22.564Z,45.78
2022-10-15T22:49:50.858Z,45.45
2022-10-15T22:52:20.627Z,47.80
2022-10-15T22:54:48.833Z,44.28
2022-10-15T22:57:17.258Z,44.78
2022-10-15T22:59:45.494Z,43.67
2022-10-15T23:02:13.821Z,46.92
2022-10-15T23:04:41.934Z,43.75
2022-10-15T23:07:10.069Z,46.75
2022-10-15T23:09:39.811Z,46.17
2022-10-15T23:12:08.317Z,44.38
2022-10-15T23:14:36.562Z,46.00
2022-10-15T23:17:04.781Z,43.05
2022-10-15T23:19:33.222Z,44.05
2022-10-15T23:22:02.725Z,44.58
2022-10-15T23:24:30.974Z,45.63
2022-10-15T23:27:00.658Z,45.05
2022-10-15T23:29:28.998Z,45.40
2022-10-15T23:31:57.233Z,45.92
2022-10-15T23:34:27.581Z,44.97
2022-10-15T23:36:56.201Z,46.13
2022-10-15T23:39:27.132Z,45.30
2022-10-15T23:41:56.060Z,47.47
2022-10-15T23:44:26.775Z,49.45
2022-10-15T23:46:55.358Z,47.53
2022-10-15T23:49:23.482Z,46.60
2022-10-15T23:51:51.633Z,47.88
2022-10-15T23:54:20.347Z,46.15
2022-10-15T23:56:48.831Z,48.95
2022-10-15T23:59:18.473Z,50.00
